createdAt,value
2023-01-29T00:02:25.477Z,101358.13
2023-01-29T00:04:53.742Z,101361.34
2023-01-29T00:07:24.754Z,101361.94
2023-01-29T00:09:53.223Z,101359.47
2023-01-29T00:12:20.974Z,101356.94
2023-01-29T00:14:48.423Z,101358.75
2023-01-29T00:17:15.953Z,101355.97
2023-01-29T00:19:44.186Z,101361.56
2023-01-29T00:22:11.560Z,101359.09
2023-01-29T00:24:38.909Z,101365.75
2023-01-29T00:27:06.589Z,101370.13
2023-01-29T00:29:34.152Z,101362.78
2023-01-29T00:32:01.776Z,101366.53
2023-01-29T00:34:29.561Z,101371.97
2023-01-29T00:37:04.752Z,101366.34
2023-01-29T00:39:47.498Z,101368.81
2023-01-29T00:42:34.285Z,101380.56
2023-01-29T00:45:02.145Z,101369.59
2023-01-29T00:47:36.520Z,101372.19
2023-01-29T00:50:11.195Z,101372.37
2023-01-29T00:52:41.096Z,101376.47
2023-01-29T00:55:11.459Z,101374.31
2023-01-29T00:57:39.174Z,101382.09
2023-01-29T01:00:10.969Z,101380.03
2023-01-29T01:02:58.013Z,101378.59
2023-01-29T01:05:27.306Z,101383.00
2023-01-29T01:07:57.589Z,101383.66
2023-01-29T01:10:32.650Z,101375.16
2023-01-29T01:13:04.141Z,101385.94
2023-01-29T01:15:36.029Z,101385.75
2023-01-29T01:18:04.745Z,101383.31
2023-01-29T01:20:34.855Z,101390.81
2023-01-29T01:23:03.574Z,101393.47
2023-01-29T01:25:31.551Z,101391.44
2023-01-29T01:28:03.072Z,101395.69
2023-01-29T01:30:31.010Z,101399.00
2023-01-29T01:32:59.442Z,101397.88
2023-01-29T01:35:27.034Z,101379.72
2023-01-29T01:37:54.887Z,101386.69
2023-01-29T01:40:25.222Z,101394.56
2023-01-29T01:42:58.525Z,101395.97
2023-01-29T01:45:30.621Z,101392.09
2023-01-29T01:48:13.922Z,101399.91
2023-01-29T01:50:58.755Z,101390.81
2023-01-29T01:53:34.543Z,101394.56
2023-01-29T01:56:06.792Z,101394.75
2023-01-29T01:58:42.477Z,101396.13
2023-01-29T02:01:12.537Z,101392.19
2023-01-29T02:04:14.936Z,101400.84
2023-01-29T02:07:01.985Z,101401.88
2023-01-29T02:09:35.832Z,101407.03
2023-01-29T02:12:11.438Z,101392.13
2023-01-29T02:14:41.297Z,101403.91
2023-01-29T02:17:15.496Z,101408.53
2023-01-29T02:20:14.490Z,101408.59
2023-01-29T02:23:09.450Z,101415.69
2023-01-29T02:26:14.414Z,101424.81
2023-01-29T02:28:52.805Z,101429.34
2023-01-29T02:31:35.045Z,101434.63
2023-01-29T02:34:24.795Z,101426.66
2023-01-29T02:37:09.564Z,101433.63
2023-01-29T02:39:48.931Z,101436.53
2023-01-29T02:42:36.062Z,101438.28
2023-01-29T02:45:34.797Z,101452.16
2023-01-29T02:48:02.874Z,101451.88
2023-01-29T02:50:49.338Z,101459.00
2023-01-29T02:53:26.035Z,101459.94
2023-01-29T02:55:56.413Z,101464.81
2023-01-29T02:58:48.062Z,101458.97
2023-01-29T03:01:38.235Z,101465.88
2023-01-29T03:04:12.938Z,101466.53
2023-01-29T03:06:50.680Z,101463.03
2023-01-29T03:09:28.217Z,101468.09
2023-01-29T03:12:03.234Z,101472.69
2023-01-29T03:14:58.797Z,101470.59
2023-01-29T03:17:32.792Z,101462.91
2023-01-29T03:20:02.546Z,101466.78
2023-01-29T03:22:31.694Z,101470.72
2023-01-29T03:25:21.573Z,101478.22
2023-01-29T03:28:15.615Z,101478.28
2023-01-29T03:31:11.343Z,101474.13
2023-01-29T03:33:45.916Z,101479.31
2023-01-29T03:36:18.854Z,101480.34
2023-01-29T03:38:46.713Z,101475.72
2023-01-29T03:41:37.627Z,101479.41
2023-01-29T03:44:22.006Z,101476.34
2023-01-29T03:46:56.805Z,101478.81
2023-01-29T03:50:00.224Z,101480.00
2023-01-29T03:52:30.833Z,101475.56
2023-01-29T03:55:07.011Z,101480.25
2023-01-29T03:58:00.983Z,101472.03
2023-01-29T04:00:35.069Z,101469.62
2023-01-29T04:03:11.530Z,101463.41
2023-01-29T04:06:22.361Z,101473.75
2023-01-29T04:09:04.007Z,101469.31
2023-01-29T04:11:35.334Z,101470.28
2023-01-29T04:14:03.413Z,101470.22
2023-01-29T04:16:37.264Z,101468.53
2023-01-29T04:19:06.800Z,101477.31
2023-01-29T04:21:37.696Z,101475.59
2023-01-29T04:24:08.045Z,101467.41
2023-01-29T04:27:04.872Z,101472.28
2023-01-29T04:29:50.514Z,101471.03
2023-01-29T04:32:24.209Z,101482.69
2023-01-29T04:35:11.961Z,101480.84
2023-01-29T04:37:56.697Z,101478.47
2023-01-29T04:41:03.571Z,101480.16
2023-01-29T04:44:06.655Z,101485.97
2023-01-29T04:46:48.885Z,101480.06
2023-01-29T04:49:34.750Z,101482.66
2023-01-29T04:52:13.046Z,101483.63
2023-01-29T04:54:54.953Z,101489.81
2023-01-29T04:57:46.337Z,101493.03
2023-01-29T05:00:22.690Z,101498.69
2023-01-29T05:02:51.243Z,101496.00
2023-01-29T05:05:20.263Z,101492.81
2023-01-29T05:07:48.676Z,101502.13
2023-01-29T05:10:20.465Z,101496.34
2023-01-29T05:12:53.141Z,101506.00
2023-01-29T05:15:29.283Z,101513.25
2023-01-29T05:18:01.871Z,101510.59
2023-01-29T05:20:35.702Z,101509.81
2023-01-29T05:23:03.605Z,101508.84
2023-01-29T05:25:33.225Z,101511.37
2023-01-29T05:28:19.117Z,101516.41
2023-01-29T05:30:49.508Z,101500.38
2023-01-29T05:33:29.057Z,101515.59
2023-01-29T05:35:59.428Z,101522.75
2023-01-29T05:38:27.117Z,101523.59
2023-01-29T05:40:54.880Z,101522.75
2023-01-29T05:43:24.801Z,101523.44
2023-01-29T05:45:57.314Z,101527.31
2023-01-29T05:48:27.692Z,101529.59
2023-01-29T05:51:01.121Z,101528.81
2023-01-29T05:53:29.557Z,101537.34
2023-01-29T05:56:00.115Z,101542.69
2023-01-29T05:58:27.748Z,101534.75
2023-01-29T06:00:55.559Z,101545.97
2023-01-29T06:03:23.263Z,101545.94
2023-01-29T06:05:50.719Z,101536.22
2023-01-29T06:08:18.268Z,101539.22
2023-01-29T06:10:46.801Z,101541.56
2023-01-29T06:13:14.274Z,101540.66
2023-01-29T06:15:41.990Z,101545.09
2023-01-29T06:18:09.740Z,101542.53
2023-01-29T06:20:37.834Z,101542.53
2023-01-29T06:23:05.908Z,101553.66
2023-01-29T06:25:33.769Z,101552.41
2023-01-29T06:28:01.308Z,101552.59
2023-01-29T06:30:28.934Z,101551.63
2023-01-29T06:33:01.692Z,101550.78
2023-01-29T06:35:29.085Z,101548.09
2023-01-29T06:37:56.980Z,101550.69
2023-01-29T06:40:24.907Z,101542.31
2023-01-29T06:42:52.378Z,101546.84
2023-01-29T06:45:20.183Z,101556.25
2023-01-29T06:47:47.724Z,101555.06
2023-01-29T06:50:15.776Z,101553.28
2023-01-29T06:52:44.245Z,101556.38
2023-01-29T06:55:12.089Z,101564.94
2023-01-29T06:57:40.151Z,101556.88
2023-01-29T07:00:09.989Z,101561.72
2023-01-29T07:02:37.697Z,101559.47
2023-01-29T07:05:05.520Z,101564.12
2023-01-29T07:07:35.768Z,101566.19
2023-01-29T07:10:03.690Z,101572.47
2023-01-29T07:12:31.284Z,101572.13
2023-01-29T07:14:58.949Z,101576.47
2023-01-29T07:17:26.797Z,101573.44
2023-01-29T07:19:54.827Z,101573.22
2023-01-29T07:22:22.614Z,101573.88
2023-01-29T07:24:50.250Z,101569.94
2023-01-29T07:27:17.834Z,101576.97
2023-01-29T07:29:45.782Z,101578.63
2023-01-29T07:32:13.267Z,101582.28
2023-01-29T07:34:40.809Z,101573.44
2023-01-29T07:37:08.684Z,101582.78
2023-01-29T07:39:36.202Z,101580.84
2023-01-29T07:42:03.813Z,101580.72
2023-01-29T07:44:31.550Z,101583.75
2023-01-29T07:46:58.984Z,101584.12
2023-01-29T07:49:26.381Z,101583.44
2023-01-29T07:51:54.114Z,101583.09
2023-01-29T07:54:21.599Z,101582.09
2023-01-29T07:56:49.085Z,101585.69
2023-01-29T07:59:17.178Z,101585.59
2023-01-29T08:01:44.768Z,101589.59
2023-01-29T08:04:12.610Z,101590.16
2023-01-29T08:06:40.050Z,101600.75
2023-01-29T08:09:08.588Z,101593.53
2023-01-29T08:11:36.364Z,101596.72
2023-01-29T08:14:03.824Z,101599.81
2023-01-29T08:16:31.329Z,101604.66
2023-01-29T08:18:59.173Z,101603.63
2023-01-29T08:21:26.725Z,101599.00
2023-01-29T08:23:54.191Z,101596.69
2023-01-29T08:26:22.070Z,101595.81
2023-01-29T08:28:49.901Z,101604.31
2023-01-29T08:31:20.682Z,101606.22
2023-01-29T08:33:49.178Z,101605.16
2023-01-29T08:36:16.706Z,101598.63
2023-01-29T08:38:44.181Z,101595.03
2023-01-29T08:41:12.008Z,101591.66
2023-01-29T08:43:40.562Z,101607.06
2023-01-29T08:46:08.734Z,101605.69
2023-01-29T08:48:36.649Z,101600.81
2023-01-29T08:51:04.693Z,101599.91
2023-01-29T08:53:32.776Z,101604.44
2023-01-29T08:56:00.959Z,101600.94
2023-01-29T08:58:28.367Z,101607.91
2023-01-29T09:00:55.899Z,101604.94
2023-01-29T09:03:23.613Z,101603.25
2023-01-29T09:05:51.084Z,101603.81
2023-01-29T09:08:18.606Z,101601.31
2023-01-29T09:10:46.398Z,101596.47
2023-01-29T09:13:13.798Z,101603.13
2023-01-29T09:15:41.238Z,101596.66
2023-01-29T09:18:09.061Z,101603.97
2023-01-29T09:20:38.238Z,101593.84
2023-01-29T09:23:08.833Z,101599.22
2023-01-29T09:25:37.013Z,101606.81
2023-01-29T09:28:04.878Z,101600.03
2023-01-29T09:30:34.619Z,101603.00
2023-01-29T09:33:02.461Z,101602.56
2023-01-29T09:35:30.162Z,101595.53
2023-01-29T09:37:57.849Z,101603.06
2023-01-29T09:40:40.900Z,101592.84
2023-01-29T09:43:19.406Z,101605.88
2023-01-29T09:46:07.311Z,101607.00
2023-01-29T09:48:36.402Z,101602.72
2023-01-29T09:51:15.066Z,101612.63
2023-01-29T09:54:18.502Z,101608.19
2023-01-29T09:56:48.322Z,101599.53
2023-01-29T09:59:18.165Z,101596.63
2023-01-29T10:01:55.065Z,101598.75
2023-01-29T10:04:31.671Z,101600.44
2023-01-29T10:07:23.816Z,101594.34
2023-01-29T10:09:54.457Z,101596.31
2023-01-29T10:12:57.327Z,101588.19
2023-01-29T10:15:31.146Z,101593.37
2023-01-29T10:18:20.153Z,101588.88
2023-01-29T10:21:25.126Z,101592.19
2023-01-29T10:24:23.243Z,101597.72
2023-01-29T10:26:52.556Z,101594.03
2023-01-29T10:29:22.090Z,101593.59
2023-01-29T10:31:57.132Z,101598.28
2023-01-29T10:34:38.532Z,101592.16
2023-01-29T10:37:24.930Z,101590.31
2023-01-29T10:39:52.895Z,101590.69
2023-01-29T10:42:35.452Z,101598.69
2023-01-29T10:45:24.737Z,101592.00
2023-01-29T10:48:23.386Z,101594.62
2023-01-29T10:51:00.538Z,101588.25
2023-01-29T10:53:40.500Z,101591.59
2023-01-29T10:56:24.045Z,101583.84
2023-01-29T10:59:25.632Z,101595.00
2023-01-29T11:01:59.277Z,101587.00
2023-01-29T11:04:28.359Z,101587.53
2023-01-29T11:06:56.264Z,101590.53
2023-01-29T11:09:36.534Z,101591.09
2023-01-29T11:12:19.480Z,101590.50
2023-01-29T11:15:05.414Z,101601.16
2023-01-29T11:17:33.083Z,101590.63
2023-01-29T11:20:00.781Z,101590.50
2023-01-29T11:22:30.467Z,101595.25
2023-01-29T11:25:18.748Z,101585.91
2023-01-29T11:27:55.209Z,101586.69
2023-01-29T11:30:41.849Z,101584.41
2023-01-29T11:33:19.651Z,101586.16
2023-01-29T11:35:48.074Z,101573.94
2023-01-29T11:38:28.354Z,101577.56
2023-01-29T11:41:08.007Z,101569.37
2023-01-29T11:43:35.586Z,101576.44
2023-01-29T11:46:13.467Z,101571.34
2023-01-29T11:48:51.544Z,101578.28
2023-01-29T11:51:28.687Z,101565.91
2023-01-29T11:54:00.589Z,101556.88
2023-01-29T11:56:42.174Z,101555.16
2023-01-29T11:59:40.623Z,101557.47
2023-01-29T12:02:23.271Z,101547.66
2023-01-29T12:04:51.357Z,101547.44
2023-01-29T12:07:19.584Z,101540.81
2023-01-29T12:09:56.261Z,101544.19
2023-01-29T12:12:29.521Z,101543.94
2023-01-29T12:15:26.258Z,101537.53
2023-01-29T12:18:03.002Z,101528.37
2023-01-29T12:20:38.512Z,101531.22
2023-01-29T12:23:25.200Z,101518.16
2023-01-29T12:26:17.900Z,101515.56
2023-01-29T12:29:23.253Z,101516.22
2023-01-29T12:32:16.629Z,101514.97
2023-01-29T12:34:47.082Z,101517.00
2023-01-29T12:37:49.143Z,101515.97
2023-01-29T12:40:19.489Z,101509.94
2023-01-29T12:42:56.942Z,101516.16
2023-01-29T12:45:27.718Z,101502.62
2023-01-29T12:47:59.271Z,101506.69
2023-01-29T12:50:32.427Z,101513.88
2023-01-29T12:53:01.766Z,101504.72
2023-01-29T12:55:40.253Z,101506.94
2023-01-29T12:58:23.586Z,101505.25
2023-01-29T13:00:54.442Z,101505.53
2023-01-29T13:03:31.107Z,101506.91
2023-01-29T13:06:20.354Z,101507.69
2023-01-29T13:09:09.702Z,101503.09
2023-01-29T13:11:58.544Z,101504.69
2023-01-29T13:14:31.250Z,101497.66
2023-01-29T13:17:20.581Z,101500.63
2023-01-29T13:19:52.773Z,101491.81
2023-01-29T13:22:27.483Z,101491.91
2023-01-29T13:25:04.674Z,101497.34
2023-01-29T13:27:36.606Z,101492.44
2023-01-29T13:30:05.755Z,101493.28
2023-01-29T13:32:35.884Z,101489.06
2023-01-29T13:35:06.660Z,101488.22
2023-01-29T13:37:37.803Z,101495.78
2023-01-29T13:40:07.398Z,101494.19
2023-01-29T13:42:47.986Z,101495.03
2023-01-29T13:45:45.225Z,101495.97
2023-01-29T13:48:27.655Z,101509.09
2023-01-29T13:50:57.576Z,101506.97
2023-01-29T13:53:31.189Z,101511.91
2023-01-29T13:56:42.135Z,101504.13
2023-01-29T13:59:45.064Z,101509.91
2023-01-29T14:02:27.731Z,101512.13
2023-01-29T14:05:29.791Z,101501.00
2023-01-29T14:08:02.139Z,101503.59
2023-01-29T14:10:32.557Z,101496.28
2023-01-29T14:13:18.508Z,101496.81
2023-01-29T14:16:12.151Z,101496.34
2023-01-29T14:18:48.900Z,101498.97
2023-01-29T14:21:16.989Z,101502.31
2023-01-29T14:23:53.507Z,101503.81
2023-01-29T14:26:30.447Z,101497.78
2023-01-29T14:29:02.482Z,101491.81
2023-01-29T14:31:41.262Z,101484.06
2023-01-29T14:34:15.089Z,101482.94
2023-01-29T14:36:45.506Z,101480.41
2023-01-29T14:39:31.643Z,101488.56
2023-01-29T14:42:02.907Z,101476.72
2023-01-29T14:44:46.001Z,101479.00
2023-01-29T14:47:32.599Z,101478.22
2023-01-29T14:50:29.129Z,101471.47
2023-01-29T14:53:15.616Z,101472.62
2023-01-29T14:56:04.396Z,101477.03
2023-01-29T14:58:46.861Z,101478.13
2023-01-29T15:01:26.679Z,101490.22
2023-01-29T15:04:13.227Z,101482.94
2023-01-29T15:06:43.696Z,101486.34
2023-01-29T15:09:35.896Z,101483.72
2023-01-29T15:12:17.941Z,101476.09
2023-01-29T15:15:05.808Z,101473.66
2023-01-29T15:17:43.338Z,101471.53
2023-01-29T15:20:41.414Z,101478.69
2023-01-29T15:23:32.815Z,101485.56
2023-01-29T15:26:17.360Z,101486.28
2023-01-29T15:28:54.801Z,101478.34
2023-01-29T15:31:28.505Z,101484.81
2023-01-29T15:34:04.991Z,101484.34
2023-01-29T15:36:33.311Z,101493.75
2023-01-29T15:39:09.587Z,101499.44
2023-01-29T15:41:38.836Z,101493.91
2023-01-29T15:44:33.296Z,101486.81
2023-01-29T15:47:01.742Z,101479.28
2023-01-29T15:49:32.919Z,101489.66
2023-01-29T15:52:08.308Z,101497.66
2023-01-29T15:54:36.198Z,101499.50
2023-01-29T15:57:04.335Z,101501.81
2023-01-29T15:59:39.295Z,101514.38
2023-01-29T16:02:33.187Z,101513.31
2023-01-29T16:05:01.847Z,101516.97
2023-01-29T16:07:30.163Z,101512.28
2023-01-29T16:09:59.783Z,101516.31
2023-01-29T16:12:28.540Z,101514.75
2023-01-29T16:14:57.086Z,101508.84
2023-01-29T16:17:25.606Z,101513.41
2023-01-29T16:19:58.603Z,101511.53
2023-01-29T16:22:37.591Z,101504.63
2023-01-29T16:25:11.082Z,101510.38
2023-01-29T16:27:43.244Z,101508.81
2023-01-29T16:30:16.900Z,101507.09
2023-01-29T16:32:46.169Z,101517.22
2023-01-29T16:35:17.740Z,101509.56
2023-01-29T16:37:50.721Z,101521.44
2023-01-29T16:40:32.547Z,101524.87
2023-01-29T16:43:26.224Z,101524.87
2023-01-29T16:46:04.534Z,101531.22
2023-01-29T16:48:34.982Z,101527.56
2023-01-29T16:51:06.507Z,101523.72
2023-01-29T16:53:35.748Z,101525.09
2023-01-29T16:56:07.155Z,101524.97
2023-01-29T16:58:35.608Z,101520.00
2023-01-29T17:01:09.239Z,101527.38
2023-01-29T17:03:39.106Z,101517.41
2023-01-29T17:06:12.243Z,101519.13
2023-01-29T17:08:43.053Z,101519.28
2023-01-29T17:11:23.127Z,101516.62
2023-01-29T17:13:50.821Z,101522.88
2023-01-29T17:16:34.516Z,101522.47
2023-01-29T17:19:11.265Z,101522.94
2023-01-29T17:21:39.581Z,101524.50
2023-01-29T17:24:07.395Z,101531.38
2023-01-29T17:26:34.869Z,101526.31
2023-01-29T17:29:03.065Z,101530.81
2023-01-29T17:31:30.735Z,101528.91
2023-01-29T17:33:58.453Z,101522.47
2023-01-29T17:36:26.463Z,101527.28
2023-01-29T17:38:54.062Z,101521.00
2023-01-29T17:41:25.744Z,101522.09
2023-01-29T17:43:53.780Z,101521.63
2023-01-29T17:46:21.700Z,101529.94
2023-01-29T17:48:49.940Z,101525.72
2023-01-29T17:51:18.415Z,101528.53
2023-01-29T17:53:47.213Z,101521.13
2023-01-29T17:56:23.500Z,101539.25
2023-01-29T17:58:51.810Z,101538.59
2023-01-29T18:01:19.510Z,101537.72
2023-01-29T18:03:47.584Z,101539.91
2023-01-29T18:06:28.378Z,101539.22
2023-01-29T18:08:56.990Z,101540.88
2023-01-29T18:11:24.863Z,101531.69
2023-01-29T18:13:52.955Z,101533.62
2023-01-29T18:16:22.811Z,101526.50
2023-01-29T18:18:51.896Z,101525.66
2023-01-29T18:21:19.645Z,101518.84
2023-01-29T18:23:47.769Z,101518.59
2023-01-29T18:26:16.946Z,101514.87
2023-01-29T18:28:45.176Z,101509.34
2023-01-29T18:31:14.465Z,101517.03
2023-01-29T18:33:42.574Z,101519.59
2023-01-29T18:36:10.290Z,101509.38
2023-01-29T18:38:38.325Z,101507.53
2023-01-29T18:41:10.570Z,101507.38
2023-01-29T18:43:40.353Z,101510.69
2023-01-29T18:46:08.985Z,101501.72
2023-01-29T18:48:37.215Z,101502.47
2023-01-29T18:51:05.821Z,101505.19
2023-01-29T18:53:33.511Z,101504.94
2023-01-29T18:56:05.505Z,101502.41
2023-01-29T18:58:38.144Z,101481.63
2023-01-29T19:01:11.693Z,101497.34
2023-01-29T19:03:41.046Z,101499.38
2023-01-29T19:06:10.644Z,101489.00
2023-01-29T19:08:39.504Z,101484.13
2023-01-29T19:11:09.082Z,101487.78
2023-01-29T19:13:38.075Z,101479.31
2023-01-29T19:16:09.098Z,101490.03
2023-01-29T19:18:37.462Z,101488.19
2023-01-29T19:21:10.799Z,101490.87
2023-01-29T19:23:40.502Z,101487.63
2023-01-29T19:26:09.251Z,101481.88
2023-01-29T19:28:37.051Z,101484.56
2023-01-29T19:31:05.128Z,101491.34
2023-01-29T19:33:33.485Z,101493.69
2023-01-29T19:36:01.918Z,101500.38
2023-01-29T19:38:33.449Z,101496.09
2023-01-29T19:41:01.254Z,101501.41
2023-01-29T19:43:33.105Z,101493.69
2023-01-29T19:46:02.083Z,101495.09
2023-01-29T19:48:30.546Z,101498.69
2023-01-29T19:51:00.835Z,101495.69
2023-01-29T19:53:29.186Z,101495.34
2023-01-29T19:56:09.481Z,101490.50
2023-01-29T19:58:38.039Z,101495.03
2023-01-29T20:01:13.378Z,101491.63
2023-01-29T20:03:46.578Z,101489.72
2023-01-29T20:06:16.905Z,101497.84
2023-01-29T20:08:48.046Z,101492.28
2023-01-29T20:11:17.938Z,101494.81
2023-01-29T20:13:51.043Z,101497.22
2023-01-29T20:16:19.675Z,101494.37
2023-01-29T20:18:48.362Z,101494.00
2023-01-29T20:21:18.320Z,101489.28
2023-01-29T20:23:49.420Z,101488.41
2023-01-29T20:26:18.253Z,101493.06
2023-01-29T20:28:47.981Z,101495.66
2023-01-29T20:31:16.623Z,101470.84
2023-01-29T20:33:44.851Z,101485.19
2023-01-29T20:36:14.697Z,101486.28
2023-01-29T20:38:42.492Z,101485.28
2023-01-29T20:41:14.667Z,101485.59
2023-01-29T20:43:43.135Z,101484.75
2023-01-29T20:46:12.104Z,101484.50
2023-01-29T20:48:41.995Z,101473.94
2023-01-29T20:51:13.768Z,101479.78
2023-01-29T20:53:46.052Z,101472.78
2023-01-29T20:56:15.980Z,101484.69
2023-01-29T20:58:46.609Z,101481.81
2023-01-29T21:01:19.677Z,101474.91
2023-01-29T21:03:48.239Z,101476.81
2023-01-29T21:06:16.260Z,101467.84
2023-01-29T21:08:44.014Z,101468.69
2023-01-29T21:11:11.946Z,101461.09
2023-01-29T21:13:39.967Z,101464.47
2023-01-29T21:16:07.508Z,101470.59
2023-01-29T21:18:35.418Z,101468.53
2023-01-29T21:21:03.201Z,101458.97
2023-01-29T21:23:31.306Z,101463.25
2023-01-29T21:26:06.490Z,101461.56
2023-01-29T21:28:34.808Z,101463.25
2023-01-29T21:31:05.331Z,101460.91
2023-01-29T21:33:34.399Z,101467.53
2023-01-29T21:36:03.388Z,101458.97
2023-01-29T21:38:31.428Z,101462.03
2023-01-29T21:41:04.551Z,101460.59
2023-01-29T21:43:32.582Z,101458.75
2023-01-29T21:46:11.480Z,101455.31
2023-01-29T21:48:40.287Z,101454.37
2023-01-29T21:51:08.414Z,101461.06
2023-01-29T21:53:36.796Z,101459.44
2023-01-29T21:56:06.077Z,101459.44
2023-01-29T21:58:33.662Z,101456.00
2023-01-29T22:01:36.724Z,101455.03
2023-01-29T22:03:48.916Z,101451.75
2023-01-29T22:06:16.456Z,101451.75
2023-01-29T22:08:43.885Z,101448.34
2023-01-29T22:11:11.724Z,101437.97
2023-01-29T22:13:39.389Z,101436.34
2023-01-29T22:16:07.157Z,101433.00
2023-01-29T22:18:35.178Z,101441.22
2023-01-29T22:21:03.040Z,101434.59
2023-01-29T22:23:31.337Z,101439.72
2023-01-29T22:26:03.590Z,101440.44
2023-01-29T22:28:31.136Z,101438.81
2023-01-29T22:31:03.253Z,101440.63
2023-01-29T22:33:31.369Z,101429.72
2023-01-29T22:35:59.645Z,101438.03
2023-01-29T22:38:27.609Z,101435.44
2023-01-29T22:40:56.881Z,101427.72
2023-01-29T22:43:26.028Z,101425.94
2023-01-29T22:45:53.414Z,101423.34
2023-01-29T22:48:22.775Z,101426.75
2023-01-29T22:51:11.880Z,101428.47
2023-01-29T22:53:39.286Z,101436.22
2023-01-29T22:56:07.890Z,101432.00
2023-01-29T22:58:35.731Z,101432.84
2023-01-29T23:01:03.928Z,101421.56
2023-01-29T23:03:31.596Z,101407.28
2023-01-29T23:05:59.145Z,101418.22
2023-01-29T23:08:27.488Z,101416.50
2023-01-29T23:10:55.657Z,101408.81
2023-01-29T23:13:23.160Z,101407.84
2023-01-29T23:15:59.253Z,101414.19
2023-01-29T23:18:27.002Z,101410.88
2023-01-29T23:20:57.994Z,101399.34
2023-01-29T23:23:25.567Z,101398.66
2023-01-29T23:26:16.368Z,101388.38
2023-01-29T23:28:44.009Z,101387.72
2023-01-29T23:31:12.451Z,101387.66
2023-01-29T23:33:40.145Z,101384.25
2023-01-29T23:36:08.617Z,101374.72
2023-01-29T23:38:36.404Z,101367.00
2023-01-29T23:41:04.021Z,101376.37
2023-01-29T23:43:32.313Z,101373.81
2023-01-29T23:46:00.291Z,101372.13
2023-01-29T23:48:28.000Z,101363.75
2023-01-29T23:50:55.501Z,101361.06
2023-01-29T23:53:23.444Z,101366.28
2023-01-29T23:56:02.516Z,101367.78
2023-01-29T23:58:30.963Z,101364.50
